This is the latest recevied weather packets stored in our database for station/object DO1AA. If no packets are shown the sender has not sent any weather packets the latest 10 day(s).
| Time | Temp. | Humidity | Pressure | Rain* | Wind** | Luminosity | Snow |
|---|---|---|---|---|---|---|---|
| 1777636205 | 23.33° C | 35% | 1015.6 hPa | 0 mm | - | - | - |
| 1777631404 | 20.56° C | 40% | 1016.5 hPa | 0 mm | - | - | - |
| 1777618806 | 13.33° C | 66% | 1017.2 hPa | 0 mm | - | - | - |
| 1777617605 | 11.67° C | 72% | 1017.2 hPa | 0 mm | - | - | - |
| 1777616404 | 11.11° C | 73% | 1017.1 hPa | 0 mm | - | - | - |
| 1777614603 | 10° C | 76% | 1017.1 hPa | 0 mm | - | - | - |
| 1777611604 | 7.78° C | 79% | 1016.7 hPa | 0 mm | - | - | - |
| 1777610403 | 4.44° C | 95% | 1016.6 hPa | 0 mm | - | - | - |
| 1777607404 | 2.78° C | 96% | 1016.5 hPa | 0 mm | - | - | - |
| 1777603204 | 3.33° C | 94% | 1016.6 hPa | 0 mm | - | - | - |
| 1777597204 | 3.89° C | 90% | 1016.6 hPa | 0 mm | - | - | - |
| 1777591804 | 5° C | 87% | 1016.6 hPa | 0 mm | - | - | - |
| 1777587604 | 6.67° C | 84% | 1016.5 hPa | 0 mm | - | - | - |
| 1777584006 | 7.78° C | 79% | 1016.8 hPa | 0 mm | - | - | - |
| 1777582804 | 8.33° C | 76% | 1016.6 hPa | 0 mm | - | - | - |
| 1777577404 | 10.56° C | 66% | 1016.7 hPa | 0 mm | - | - | - |
| 1777575006 | 12.78° C | 58% | 1016.4 hPa | 0 mm | - | - | - |
| 1777567804 | 18.89° C | 36% | 1016.5 hPa | 0 mm | - | - | - |
| 1777564204 | 18.89° C | 36% | 1016.8 hPa | 0 mm | - | - | - |
| 1777562403 | 18.33° C | 36% | 1016.8 hPa | 0 mm | - | - | - |
| 1777559404 | 18.89° C | 35% | 1017.2 hPa | 0 mm | - | - | - |
| 1777554605 | 18.89° C | 34% | 1017.8 hPa | 0 mm | - | - | - |
| 1777554004 | 18.33° C | 36% | 1018.1 hPa | 0 mm | - | - | - |
| 1777552805 | 18.33° C | 35% | 1018.4 hPa | 0 mm | - | - | - |
| 1777551005 | 18.33° C | 36% | 1018.4 hPa | 0 mm | - | - | - |
* Rain latest hour (hover to see other rain measurements)
** Current wind speed in m/s (hover to see current wind gust speed)